Time;durP1;ratioP1;P1;durP2;ratioP2;P2;SDS_P1;SDS_P2;PMS_P1;PMS_P2;Temp;Humidity;BMP_temperature;BMP_pressure;BME280_temperature;BME280_humidity;BME280_pressure;Samples;Min_cycle;Max_cycle;Signal;HPM_P1;HPM_P2
2020/12/28 00:01:42;;;;;;;11.43;3.08;;;;;;;6.02;64.17;95155.28;5018127;28;20073;-77
2020/12/28 00:04:11;;;;;;;12.10;3.58;;;;;;;6.41;62.64;95153.72;5017298;28;20127;-76
2020/12/28 00:06:39;;;;;;;14.18;3.20;;;;;;;5.90;64.02;95163.78;5026584;28;20461;-77
2020/12/28 00:09:06;;;;;;;8.70;3.10;;;;;;;5.81;64.76;95161.72;5020077;28;20536;-76
2020/12/28 00:11:33;;;;;;;13.98;4.00;;;;;;;6.09;63.08;95153.97;5025499;28;20140;-76
2020/12/28 00:14:00;;;;;;;8.25;2.80;;;;;;;5.69;64.26;95145.22;5023095;28;20048;-77
2020/12/28 00:16:27;;;;;;;15.65;3.80;;;;;;;5.74;63.91;95144.09;5029215;28;20140;-77
2020/12/28 00:18:54;;;;;;;11.95;4.35;;;;;;;5.60;64.83;95139.75;5011888;28;20091;-76
2020/12/28 00:21:24;;;;;;;12.82;3.58;;;;;;;5.88;64.08;95132.00;4995101;28;20053;-76
2020/12/28 00:24:09;;;;;;;14.45;3.42;;;;;;;5.69;64.88;95132.25;5000369;28;20029;-76
2020/12/28 00:26:38;;;;;;;11.00;3.65;;;;;;;5.58;65.38;95129.47;5020221;28;20102;-76
2020/12/28 00:29:06;;;;;;;9.77;3.72;;;;;;;5.75;64.99;95133.66;4995672;28;20081;-76
2020/12/28 00:31:51;;;;;;;10.07;3.38;;;;;;;5.80;64.69;95129.03;5008178;28;20352;-78
2020/12/28 00:34:36;;;;;;;11.05;3.13;;;;;;;5.78;64.90;95137.78;4996942;28;20068;-78
2020/12/28 00:37:20;;;;;;;8.48;3.00;;;;;;;5.70;64.86;95146.03;5000784;28;20428;-76
2020/12/28 00:40:08;;;;;;;19.92;3.88;;;;;;;5.13;67.18;95148.56;5003148;28;20065;-76
2020/12/28 00:42:52;;;;;;;17.02;3.55;;;;;;;5.67;65.11;95144.44;5005812;28;20045;-78
2020/12/28 00:45:37;;;;;;;12.77;3.70;;;;;;;6.00;64.30;95140.75;5021982;28;20381;-76
2020/12/28 00:48:04;;;;;;;14.15;3.60;;;;;;;6.27;63.60;95151.16;4977082;28;20052;-78
2020/12/28 00:50:31;;;;;;;12.10;3.53;;;;;;;6.52;62.75;95153.88;5002421;28;20040;-77
2020/12/28 00:52:57;;;;;;;8.55;3.40;;;;;;;6.81;62.26;95162.38;5022580;28;20518;-77
2020/12/28 00:55:24;;;;;;;12.98;4.47;;;;;;;6.89;62.06;95160.09;5033289;28;20131;-76
2020/12/28 00:57:52;;;;;;;11.60;3.42;;;;;;;6.48;63.32;95158.41;5020734;28;20061;-76
2020/12/28 01:00:19;;;;;;;10.55;3.92;;;;;;;6.82;62.08;95167.44;4998190;28;20053;-76
2020/12/28 01:02:46;;;;;;;11.20;3.83;;;;;;;7.11;61.83;95170.72;5006982;28;20103;-76
2020/12/28 01:05:13;;;;;;;14.75;3.72;;;;;;;7.30;61.20;95168.56;5000755;28;20045;-77
2020/12/28 01:07:58;;;;;;;13.65;3.38;;;;;;;7.11;61.39;95155.16;4999562;28;20132;-76
2020/12/28 01:10:44;;;;;;;10.20;3.35;;;;;;;7.27;60.44;95153.22;4986801;28;20038;-79
2020/12/28 01:13:31;;;;;;;9.75;4.63;;;;;;;7.04;61.34;95150.47;4991655;28;20042;-78
2020/12/28 01:16:16;;;;;;;11.38;3.92;;;;;;;6.93;61.41;95143.41;4997535;28;20045;-78
2020/12/28 01:19:02;;;;;;;11.77;3.40;;;;;;;6.82;61.85;95135.47;4997311;28;20037;-77
2020/12/28 01:21:47;;;;;;;7.78;2.42;;;;;;;6.94;61.16;95142.47;5005570;28;20076;-77
2020/12/28 01:24:32;;;;;;;6.28;2.22;;;;;;;6.68;62.52;95131.19;5002705;28;20064;-78
2020/12/28 01:27:17;;;;;;;6.57;3.15;;;;;;;6.94;61.59;95134.69;4990264;28;20065;-78
2020/12/28 01:30:03;;;;;;;8.38;3.08;;;;;;;7.01;61.30;95136.75;4999226;28;20426;-78
2020/12/28 01:32:31;;;;;;;7.13;3.08;;;;;;;6.74;61.69;95140.34;4989146;28;20503;-76
2020/12/28 01:34:59;;;;;;;8.65;3.65;;;;;;;6.80;62.03;95134.75;5003968;28;20544;-78
2020/12/28 01:37:44;;;;;;;5.72;2.47;;;;;;;6.51;62.54;95134.06;4994802;28;20590;-78
2020/12/28 01:40:33;;;;;;;8.77;2.63;;;;;;;6.09;64.26;95127.25;5001559;28;20493;-79
2020/12/28 01:43:00;;;;;;;11.65;2.67;;;;;;;6.54;62.88;95133.84;5005285;28;20052;-78
2020/12/28 01:45:27;;;;;;;8.25;2.45;;;;;;;6.69;62.75;95132.88;5023410;28;20046;-78
2020/12/28 01:47:54;;;;;;;10.75;3.20;;;;;;;7.19;60.65;95136.50;5002017;28;20168;-77
2020/12/28 01:50:21;;;;;;;10.18;2.70;;;;;;;7.40;60.38;95140.22;4993704;28;20088;-78
2020/12/28 01:52:49;;;;;;;14.43;2.88;;;;;;;7.59;59.79;95156.22;5022691;28;20054;-77
2020/12/28 01:55:17;;;;;;;6.70;2.33;;;;;;;7.46;60.06;95155.41;5024266;28;20080;-77
2020/12/28 01:58:02;;;;;;;8.65;2.40;;;;;;;7.35;60.66;95157.88;5021004;28;20180;-78
2020/12/28 02:00:47;;;;;;;9.32;2.33;;;;;;;7.47;60.02;95161.44;5029984;28;20078;-77
2020/12/28 02:03:32;;;;;;;5.43;2.17;;;;;;;7.55;59.48;95159.97;5002784;28;20045;-76
2020/12/28 02:06:17;;;;;;;8.95;1.80;;;;;;;6.58;61.74;95145.69;5016268;28;20053;-77
2020/12/28 02:09:02;;;;;;;12.13;2.05;;;;;;;6.72;61.47;95137.84;5009396;28;20041;-76
2020/12/28 02:11:47;;;;;;;9.60;2.17;;;;;;;6.31;62.99;95137.91;5015487;28;20041;-76
2020/12/28 02:14:15;;;;;;;11.65;2.50;;;;;;;6.23;62.94;95137.56;5024639;28;20099;-78
2020/12/28 02:16:42;;;;;;;6.55;2.47;;;;;;;6.69;61.85;95132.03;5019177;28;20120;-77
2020/12/28 02:19:09;;;;;;;14.35;3.15;;;;;;;7.03;61.07;95141.03;5021315;28;20049;-77
2020/12/28 02:21:36;;;;;;;12.57;1.90;;;;;;;6.91;60.91;95132.28;5031159;28;20053;-77
2020/12/28 02:24:04;;;;;;;13.95;2.70;;;;;;;6.02;63.51;95120.78;5028083;28;20510;-77
2020/12/28 02:26:33;;;;;;;8.95;1.90;;;;;;;6.30;62.52;95127.63;5025482;28;20066;-77
2020/12/28 02:29:18;;;;;;;10.27;2.67;;;;;;;6.38;62.45;95128.81;5006103;28;20041;-77
2020/12/28 02:32:02;;;;;;;5.82;2.50;;;;;;;7.05;60.54;95136.59;5005836;28;20041;-77
2020/12/28 02:34:46;;;;;;;8.90;2.70;;;;;;;6.72;62.07;95137.84;5025774;28;20061;-77
2020/12/28 02:37:34;;;;;;;10.68;3.40;;;;;;;7.14;60.67;95159.31;5023978;28;20465;-77
2020/12/28 02:40:18;;;;;;;15.15;4.32;;;;;;;7.14;60.89;95156.72;5002328;28;20051;-76
2020/12/28 02:43:02;;;;;;;15.70;5.25;;;;;;;6.88;62.00;95151.47;5022628;28;20063;-76
2020/12/28 02:45:29;;;;;;;20.02;5.38;;;;;;;7.02;61.40;95153.16;5022553;28;20044;-76
2020/12/28 02:47:55;;;;;;;14.63;5.68;;;;;;;7.36;60.14;95144.81;5021797;28;20042;-76
2020/12/28 02:50:39;;;;;;;17.95;6.82;;;;;;;6.60;62.76;95140.41;5003782;28;20064;-77
2020/12/28 02:53:24;;;;;;;19.05;5.95;;;;;;;6.97;61.70;95137.06;5015724;28;20094;-77
2020/12/28 02:56:08;;;;;;;16.75;6.75;;;;;;;6.79;62.02;95135.69;5006238;28;20480;-77
2020/12/28 02:58:53;;;;;;;27.27;8.02;;;;;;;6.91;61.63;95135.72;5021219;28;20048;-76
2020/12/28 03:01:19;;;;;;;16.85;7.10;;;;;;;6.27;63.93;95130.44;5023156;28;20056;-78
2020/12/28 03:03:46;;;;;;;19.65;5.90;;;;;;;6.53;62.87;95129.59;5021561;28;20828;-78
2020/12/28 03:06:12;;;;;;;21.95;7.85;;;;;;;6.48;63.17;95136.81;5005539;28;20061;-78
2020/12/28 03:08:40;;;;;;;19.75;6.13;;;;;;;6.35;63.23;95147.16;5007691;28;20057;-76
2020/12/28 03:11:06;;;;;;;14.82;5.25;;;;;;;6.35;63.47;95133.34;5002506;28;20164;-76
2020/12/28 03:13:33;;;;;;;25.52;5.80;;;;;;;5.97;64.28;95128.00;5008203;28;20085;-76
2020/12/28 03:16:17;;;;;;;19.17;6.00;;;;;;;6.27;63.05;95125.25;5021212;28;23270;-76
2020/12/28 03:19:02;;;;;;;17.60;6.22;;;;;;;6.13;63.84;95126.97;5020004;28;20131;-77
2020/12/28 03:21:46;;;;;;;19.75;5.70;;;;;;;6.14;63.88;95120.00;5008277;28;20103;-76
2020/12/28 03:24:30;;;;;;;12.45;5.90;;;;;;;5.76;65.09;95113.75;5017172;28;20128;-76
2020/12/28 03:27:14;;;;;;;23.25;7.47;;;;;;;5.59;65.94;95115.63;5023636;28;20072;-76
2020/12/28 03:29:41;;;;;;;20.20;6.35;;;;;;;5.72;65.42;95108.75;5005300;28;20049;-76
2020/12/28 03:32:07;;;;;;;23.00;7.18;;;;;;;5.80;65.41;95108.31;5022684;28;20516;-76
2020/12/28 03:34:52;;;;;;;25.45;7.28;;;;;;;5.74;65.55;95107.84;5023009;28;20037;-77
2020/12/28 03:37:36;;;;;;;22.42;8.18;;;;;;;5.60;66.09;95116.47;5003411;28;20183;-76
2020/12/28 03:40:03;;;;;;;27.52;10.13;;;;;;;5.35;67.16;95117.09;5020107;28;20120;-76
2020/12/28 03:42:30;;;;;;;33.47;11.13;;;;;;;5.61;65.96;95118.94;5022306;28;20056;-76
2020/12/28 03:44:56;;;;;;;26.02;10.45;;;;;;;5.18;67.58;95114.69;5022375;28;20140;-76
2020/12/28 03:47:23;;;;;;;32.50;13.93;;;;;;;5.61;66.19;95118.13;5017530;28;20140;-76
2020/12/28 03:50:07;;;;;;;34.72;14.02;;;;;;;5.47;66.32;95131.03;5025427;28;20138;-76
2020/12/28 03:52:51;;;;;;;31.65;13.50;;;;;;;5.48;67.21;95128.38;5023019;28;20377;-76
2020/12/28 03:55:18;;;;;;;27.83;12.63;;;;;;;5.41;66.83;95134.03;5021955;28;20072;-76
2020/12/28 03:57:44;;;;;;;31.15;13.80;;;;;;;5.57;66.57;95139.91;5018963;28;20444;-76
2020/12/28 04:00:29;;;;;;;35.13;14.45;;;;;;;5.60;66.21;95134.56;5020343;28;20033;-76
2020/12/28 04:03:13;;;;;;;42.83;15.32;;;;;;;5.84;65.57;95138.25;5016411;28;20034;-76
2020/12/28 04:06:01;;;;;;;33.38;15.27;;;;;;;5.92;65.50;95141.22;5020061;28;20536;-77
2020/12/28 04:08:45;;;;;;;30.08;14.77;;;;;;;6.28;64.21;95145.06;5035836;28;20033;-76
2020/12/28 04:11:12;;;;;;;31.30;14.25;;;;;;;6.04;64.82;95145.63;5009371;28;20513;-76
2020/12/28 04:13:39;;;;;;;33.42;15.98;;;;;;;5.84;65.61;95146.03;4940970;28;20409;-76
2020/12/28 04:16:24;;;;;;;28.65;15.40;;;;;;;5.91;65.48;95149.09;4992779;28;20051;-77
2020/12/28 04:19:08;;;;;;;27.77;14.15;;;;;;;5.99;64.98;95147.72;4939246;28;20071;-76
2020/12/28 04:21:35;;;;;;;32.35;14.30;;;;;;;5.70;66.01;95151.22;4992829;28;20051;-76
2020/12/28 04:24:01;;;;;;;26.02;13.48;;;;;;;6.15;64.22;95155.34;5003148;28;20524;-77
2020/12/28 04:26:46;;;;;;;37.13;14.55;;;;;;;6.13;64.99;95154.63;5006966;28;20043;-76
2020/12/28 04:29:30;;;;;;;39.08;14.55;;;;;;;5.52;66.04;95158.31;4943219;28;20051;-77
2020/12/28 04:32:15;;;;;;;30.17;13.70;;;;;;;6.06;64.59;95155.91;4937010;28;20157;-75
2020/12/28 04:34:59;;;;;;;39.22;14.52;;;;;;;5.87;65.38;95170.91;4995150;28;20121;-76
2020/12/28 04:37:27;;;;;;;39.60;15.82;;;;;;;5.49;66.23;95175.78;4946253;28;20062;-76
2020/12/28 04:39:54;;;;;;;31.45;14.65;;;;;;;5.64;66.28;95177.47;4942683;28;20051;-76
2020/12/28 04:42:28;;;;;;;32.17;14.43;;;;;;;5.85;65.64;95178.75;4941364;28;20053;-76
2020/12/28 04:44:55;;;;;;;28.67;13.95;;;;;;;5.68;66.30;95174.59;4939601;28;20573;-76
2020/12/28 04:47:23;;;;;;;32.60;14.05;;;;;;;5.67;66.33;95177.28;5006851;28;20082;-77
2020/12/28 04:49:50;;;;;;;29.92;13.00;;;;;;;5.38;67.06;95184.19;5006434;28;20051;-76
2020/12/28 04:52:35;;;;;;;27.20;14.38;;;;;;;5.31;67.33;95182.91;4940644;28;20122;-76
2020/12/28 04:55:19;;;;;;;33.00;13.45;;;;;;;5.37;66.99;95186.88;4942513;28;20038;-76
2020/12/28 04:57:46;;;;;;;26.73;13.68;;;;;;;5.59;66.06;95187.25;4953778;28;20055;-76
2020/12/28 05:00:13;;;;;;;26.77;14.10;;;;;;;5.30;67.31;95193.31;4938202;28;20057;-76
2020/12/28 05:02:57;;;;;;;25.10;12.90;;;;;;;5.32;67.36;95199.25;5006330;28;20140;-76
2020/12/28 05:05:45;;;;;;;25.85;12.48;;;;;;;5.36;66.99;95192.97;4938271;28;20142;-76
2020/12/28 05:08:30;;;;;;;22.35;10.82;;;;;;;4.99;67.34;95187.34;4989133;28;20040;-76
2020/12/28 05:11:15;;;;;;;23.50;12.95;;;;;;;5.38;66.64;95185.94;4938444;28;20495;-76
2020/12/28 05:14:00;;;;;;;19.67;12.35;;;;;;;5.46;66.07;95194.09;4936503;28;20071;-76
2020/12/28 05:16:44;;;;;;;28.70;13.73;;;;;;;5.54;66.09;95203.06;4941789;28;20138;-76
2020/12/28 05:19:29;;;;;;;30.00;14.38;;;;;;;5.63;66.29;95214.63;5011341;28;20122;-76
2020/12/28 05:22:15;;;;;;;26.92;15.02;;;;;;;5.33;67.39;95211.25;4993595;28;20047;-76
2020/12/28 05:24:59;;;;;;;27.13;13.85;;;;;;;5.55;66.49;95222.88;4938792;28;20048;-76
2020/12/28 05:27:26;;;;;;;28.95;14.52;;;;;;;5.71;65.87;95222.75;5001570;28;20054;-77
2020/12/28 05:29:53;;;;;;;27.02;14.20;;;;;;;5.89;65.20;95229.47;4942762;28;20051;-77
2020/12/28 05:32:42;;;;;;;25.15;13.43;;;;;;;5.53;66.19;95224.69;5005648;28;20503;-76
2020/12/28 05:35:28;;;;;;;25.30;14.38;;;;;;;5.09;67.74;95235.03;4992465;28;20055;-77
2020/12/28 05:38:14;;;;;;;21.55;11.70;;;;;;;5.18;67.12;95231.91;4997671;28;20082;-76
2020/12/28 05:41:04;;;;;;;27.90;14.55;;;;;;;5.79;65.59;95241.28;4938724;28;20047;-77
2020/12/28 05:43:31;;;;;;;24.40;13.13;;;;;;;5.63;65.56;95248.28;5003708;28;20543;-76
2020/12/28 05:45:59;;;;;;;23.73;13.75;;;;;;;5.50;66.60;95248.19;5002015;28;20043;-76
2020/12/28 05:48:26;;;;;;;24.05;15.38;;;;;;;6.18;64.59;95245.84;5004791;28;20062;-76
2020/12/28 05:50:57;;;;;;;26.38;14.90;;;;;;;6.11;64.34;95249.72;4938954;28;20069;-77
2020/12/28 05:53:25;;;;;;;27.15;14.95;;;;;;;5.88;65.08;95264.06;4939653;28;20151;-77
2020/12/28 05:55:53;;;;;;;24.20;14.30;;;;;;;6.44;63.66;95259.78;4938980;28;20047;-77
2020/12/28 05:58:42;;;;;;;27.02;15.15;;;;;;;6.10;64.82;95268.78;4999571;28;20138;-76
2020/12/28 06:01:30;;;;;;;24.23;15.25;;;;;;;5.56;66.38;95273.69;5004961;28;20051;-77
2020/12/28 06:04:00;;;;;;;33.05;16.52;;;;;;;5.90;65.48;95280.31;4993578;28;20101;-77
2020/12/28 06:06:28;;;;;;;26.38;15.73;;;;;;;5.46;67.03;95282.09;5005465;28;20067;-76
2020/12/28 06:09:17;;;;;;;41.03;19.17;;;;;;;4.72;69.33;95285.38;4938280;28;20048;-76
2020/12/28 06:12:06;;;;;;;35.35;18.90;;;;;;;5.26;68.67;95284.06;4939070;28;20040;-77
2020/12/28 06:14:50;;;;;;;32.78;18.75;;;;;;;5.04;69.66;95295.69;5003439;28;20097;-77
2020/12/28 06:17:36;;;;;;;35.05;20.23;;;;;;;5.24;68.57;95298.81;4937997;28;20378;-77
2020/12/28 06:20:05;;;;;;;39.97;19.42;;;;;;;5.19;68.78;95303.44;4941012;28;20055;-77
2020/12/28 06:22:32;;;;;;;42.72;21.73;;;;;;;5.28;67.74;95309.81;4949841;28;20086;-76
2020/12/28 06:25:17;;;;;;;56.83;24.05;;;;;;;5.19;68.89;95313.78;4957421;28;20047;-76
2020/12/28 06:28:01;;;;;;;45.40;23.63;;;;;;;4.67;69.95;95315.81;4991208;28;20782;-76
2020/12/28 06:30:28;;;;;;;49.05;23.38;;;;;;;4.57;70.69;95314.66;5011936;28;20528;-77
2020/12/28 06:33:16;;;;;;;53.97;24.58;;;;;;;4.96;69.77;95316.81;4994236;28;21121;-76
2020/12/28 06:36:12;;;;;;;68.22;25.20;;;;;;;4.63;70.53;95322.06;4996761;28;20043;-76
2020/12/28 06:38:39;;;;;;;57.13;20.63;;;;;;;4.55;70.77;95328.59;5011167;28;20074;-76
2020/12/28 06:41:05;;;;;;;90.10;22.70;;;;;;;4.21;71.48;95332.94;5013945;28;20047;-77
2020/12/28 06:43:51;;;;;;;61.15;23.00;;;;;;;4.93;69.95;95337.69;5012675;28;20051;-77
2020/12/28 06:46:37;;;;;;;57.75;23.30;;;;;;;5.21;68.95;95342.16;4943015;28;20125;-77
2020/12/28 06:49:03;;;;;;;53.00;20.13;;;;;;;4.48;70.66;95351.31;4987626;28;20146;-77
2020/12/28 06:51:30;;;;;;;55.35;21.25;;;;;;;4.61;69.68;95356.66;4946538;28;20039;-77
2020/12/28 06:53:57;;;;;;;80.70;22.70;;;;;;;5.04;69.31;95357.75;5005458;28;20451;-77
2020/12/28 06:56:27;;;;;;;93.78;24.67;;;;;;;4.91;69.12;95356.75;5007204;28;20055;-77
2020/12/28 06:59:01;;;;;;;116.75;23.63;;;;;;;4.79;69.60;95358.28;5007054;28;20108;-77
2020/12/28 07:01:28;;;;;;;104.25;22.90;;;;;;;4.76;69.68;95367.03;5008159;28;20043;-77
2020/12/28 07:03:55;;;;;;;78.93;22.13;;;;;;;5.16;68.75;95373.44;4943646;28;20078;-77
2020/12/28 07:06:40;;;;;;;100.50;24.33;;;;;;;5.00;68.99;95400.22;5012199;28;20051;-77
2020/12/28 07:09:24;;;;;;;134.70;24.58;;;;;;;4.61;70.05;95396.25;5008278;28;20210;-77
2020/12/28 07:12:10;;;;;;;74.93;20.77;;;;;;;4.68;69.74;95394.19;4946115;28;20050;-77
2020/12/28 07:15:03;;;;;;;66.85;20.38;;;;;;;5.15;68.79;95394.22;4995015;28;20070;-77
2020/12/28 07:17:47;;;;;;;100.07;20.33;;;;;;;5.04;69.13;95399.13;4983330;28;20043;-77
2020/12/28 07:20:31;;;;;;;98.20;21.10;;;;;;;4.98;68.65;95397.75;5000479;28;20047;-77
2020/12/28 07:23:15;;;;;;;79.85;19.23;;;;;;;4.90;68.09;95401.63;4946540;28;20122;-77
2020/12/28 07:26:12;;;;;;;127.35;20.63;;;;;;;5.02;68.37;95406.16;4998322;28;20054;-77
2020/12/28 07:28:57;;;;;;;153.52;22.77;;;;;;;5.22;67.67;95411.09;4943580;28;20053;-77
2020/12/28 07:31:23;;;;;;;52.22;21.17;;;;;;;5.26;67.14;95425.53;4946068;28;20049;-77
2020/12/28 07:33:51;;;;;;;91.15;21.42;;;;;;;5.14;67.74;95423.59;4955374;28;20126;-78
2020/12/28 07:36:36;;;;;;;131.07;23.13;;;;;;;5.07;68.17;95427.44;4992456;28;20039;-77
2020/12/28 07:39:22;;;;;;;93.85;21.83;;;;;;;5.38;67.87;95436.94;4940904;28;20054;-77
2020/12/28 07:41:49;;;;;;;116.38;22.23;;;;;;;5.35;67.46;95439.72;4991201;28;20066;-77
2020/12/28 07:44:16;;;;;;;110.47;23.38;;;;;;;5.40;67.66;95448.06;4990233;28;20051;-77
2020/12/28 07:46:58;;;;;;;61.22;21.85;;;;;;;5.70;66.55;95459.31;5008099;28;20054;-77
2020/12/28 07:49:28;;;;;;;225.07;24.42;;;;;;;5.45;66.84;95466.75;4989871;28;20047;-77
2020/12/28 07:52:09;;;;;;;220.63;22.25;;;;;;;5.26;67.28;95469.50;4938024;28;20047;-77
2020/12/28 07:55:00;;;;;;;173.13;22.13;;;;;;;5.44;66.89;95465.91;5006403;28;20103;-77
2020/12/28 07:57:50;;;;;;;102.38;21.23;;;;;;;5.63;66.33;95466.56;5009440;28;20571;-77
2020/12/28 08:00:19;;;;;;;235.88;25.90;;;;;;;5.63;65.56;95470.91;5007548;28;20058;-77
2020/12/28 08:02:58;;;;;;;315.83;27.15;;;;;;;5.64;65.62;95470.00;4943391;28;20370;-77
2020/12/28 08:05:27;;;;;;;62.53;20.48;;;;;;;6.13;65.21;95491.44;5019582;28;20059;-77
2020/12/28 08:08:24;;;;;;;315.55;26.88;;;;;;;5.64;66.18;95490.72;4958846;28;20047;-77
2020/12/28 08:11:08;;;;;;;235.63;26.20;;;;;;;5.87;65.54;95500.66;4995560;28;20052;-77
2020/12/28 08:13:36;;;;;;;190.77;26.23;;;;;;;5.76;65.95;95502.97;4993423;28;20142;-77
2020/12/28 08:16:11;;;;;;;276.23;26.15;;;;;;;5.71;66.72;95510.16;5020475;28;20055;-77
2020/12/28 08:18:56;;;;;;;507.17;35.25;;;;;;;4.91;68.85;95502.41;5008354;28;20050;-77
2020/12/28 08:21:41;;;;;;;523.05;35.70;;;;;;;5.06;69.18;95513.69;5004135;28;20537;-77
2020/12/28 08:24:25;;;;;;;625.92;36.40;;;;;;;4.79;69.74;95522.00;4940281;28;20402;-77
2020/12/28 08:27:10;;;;;;;499.58;34.63;;;;;;;4.95;69.42;95529.78;5005889;28;20035;-78
2020/12/28 08:29:37;;;;;;;587.58;34.90;;;;;;;4.75;70.13;95535.97;5008779;28;20583;-77
2020/12/28 08:32:03;;;;;;;379.90;29.33;;;;;;;4.77;70.08;95541.06;4935154;28;20076;-77
2020/12/28 08:34:59;;;;;;;406.27;31.30;;;;;;;4.57;70.82;95533.47;4995163;28;20062;-77
2020/12/28 08:37:48;;;;;;;130.57;22.20;;;;;;;5.06;69.44;95549.91;5002202;28;20131;-77
2020/12/28 08:40:20;;;;;;;56.28;22.52;;;;;;;5.74;67.23;95551.44;4946489;28;20051;-77
2020/12/28 08:42:54;;;;;;;478.02;36.53;;;;;;;4.95;68.85;95558.22;5005758;28;20505;-77
2020/12/28 08:45:26;;;;;;;69.10;27.00;;;;;;;5.66;67.45;95559.59;5007220;28;20381;-77
2020/12/28 08:47:55;;;;;;;191.52;24.73;;;;;;;5.15;68.88;95559.78;4941178;28;20055;-77
2020/12/28 08:50:23;;;;;;;145.32;22.42;;;;;;;4.73;69.76;95562.81;4941188;28;20100;-77
2020/12/28 08:52:55;;;;;;;323.45;24.83;;;;;;;4.84;69.95;95576.84;4991722;28;20128;-77
2020/12/28 08:55:21;;;;;;;464.35;32.63;;;;;;;4.48;70.95;95586.47;4941830;28;20152;-77
2020/12/28 08:57:59;;;;;;;131.90;24.30;;;;;;;5.26;68.98;95599.72;4943367;28;20169;-77
2020/12/28 09:00:27;;;;;;;95.75;21.95;;;;;;;5.33;68.54;95601.97;5017822;28;20082;-77
2020/12/28 09:03:13;;;;;;;200.85;56.38;;;;;;;4.88;70.16;95607.75;4998217;28;20055;-77
2020/12/28 09:05:57;;;;;;;256.27;26.35;;;;;;;5.00;69.32;95614.88;4943412;28;20031;-77
2020/12/28 09:08:24;;;;;;;293.52;29.83;;;;;;;5.19;69.06;95613.88;5003202;28;20047;-77
2020/12/28 09:10:51;;;;;;;260.75;25.92;;;;;;;4.30;71.47;95614.03;4940646;28;20059;-77
2020/12/28 09:13:17;;;;;;;107.90;25.20;;;;;;;5.55;67.79;95623.22;5005821;28;20837;-78
2020/12/28 09:15:44;;;;;;;262.17;25.88;;;;;;;4.93;69.65;95629.88;5005244;28;20051;-78
2020/12/28 09:18:29;;;;;;;122.07;23.23;;;;;;;5.13;69.58;95634.88;4992412;28;20047;-77
2020/12/28 09:21:13;;;;;;;276.08;31.02;;;;;;;5.23;67.85;95643.84;4994377;28;20051;-77
2020/12/28 09:23:57;;;;;;;169.30;28.40;;;;;;;5.31;68.00;95642.63;4992580;28;20043;-78
2020/12/28 09:26:42;;;;;;;109.10;23.58;;;;;;;5.35;68.26;95641.53;4994315;28;20047;-78
2020/12/28 09:29:26;;;;;;;64.55;22.50;;;;;;;5.47;67.53;95643.47;4945991;28;20571;-77
2020/12/28 09:32:11;;;;;;;187.07;22.48;;;;;;;5.22;68.26;95657.72;5004200;28;20410;-77
2020/12/28 09:34:38;;;;;;;132.80;19.83;;;;;;;5.01;68.68;95663.94;4994005;28;20101;-77
2020/12/28 09:37:06;;;;;;;225.70;22.83;;;;;;;5.33;68.04;95662.31;4941934;28;20040;-77
2020/12/28 09:39:34;;;;;;;237.27;24.60;;;;;;;5.07;67.65;95660.22;4937800;28;20460;-78
2020/12/28 09:42:01;;;;;;;123.10;23.20;;;;;;;4.94;68.93;95657.41;4988280;28;20059;-78
2020/12/28 09:44:45;;;;;;;73.57;18.42;;;;;;;4.88;68.85;95667.22;4940120;28;20047;-78
2020/12/28 09:47:32;;;;;;;43.25;18.52;;;;;;;5.06;68.40;95661.97;5008126;28;20058;-77
2020/12/28 09:50:17;;;;;;;64.80;19.05;;;;;;;5.53;66.78;95656.13;5005616;28;20104;-78
2020/12/28 09:53:01;;;;;;;59.05;22.02;;;;;;;5.56;67.31;95658.56;4939684;28;20075;-78
2020/12/28 09:55:45;;;;;;;79.82;22.33;;;;;;;5.75;66.33;95671.38;4938223;28;20477;-76
2020/12/28 09:58:12;;;;;;;49.80;20.60;;;;;;;6.19;65.49;95666.44;5009354;28;20130;-76
2020/12/28 10:00:39;;;;;;;86.82;21.52;;;;;;;5.62;66.22;95669.41;4994234;28;20690;-77
2020/12/28 10:03:24;;;;;;;66.65;20.58;;;;;;;6.03;64.68;95669.88;4943428;28;20047;-77
2020/12/28 10:08:53;;;;;;;191.80;22.73;;;;;;;5.26;67.27;95671.31;5004625;28;20047;-76
2020/12/28 10:11:20;;;;;;;42.08;20.30;;;;;;;6.09;65.23;95677.28;4948050;28;22002;-76
2020/12/28 10:13:47;;;;;;;88.35;23.52;;;;;;;5.84;65.51;95679.50;4988963;28;20061;-76
2020/12/28 10:16:19;;;;;;;88.63;22.27;;;;;;;5.97;65.62;95680.53;4983684;28;20549;-76
2020/12/28 10:18:45;;;;;;;65.97;22.73;;;;;;;6.18;65.02;95675.13;5025522;28;20047;-78
2020/12/28 10:21:12;;;;;;;59.90;20.70;;;;;;;5.95;65.74;95681.53;5006636;28;20055;-77
2020/12/28 10:23:40;;;;;;;56.85;20.40;;;;;;;6.13;65.02;95685.75;5010808;28;20035;-75
2020/12/28 10:26:07;;;;;;;85.22;20.92;;;;;;;6.05;65.09;95688.72;5010307;28;20489;-76
2020/12/28 10:28:54;;;;;;;67.32;19.88;;;;;;;6.05;64.47;95699.09;4998307;28;20056;-76
2020/12/28 10:31:39;;;;;;;53.50;19.65;;;;;;;5.94;65.41;95695.41;4945614;28;20120;-75
2020/12/28 10:34:26;;;;;;;56.55;19.92;;;;;;;6.22;64.26;95694.78;4950303;28;20058;-76
2020/12/28 10:37:11;;;;;;;48.90;20.90;;;;;;;6.61;62.96;95709.91;5002519;28;20062;-79
2020/12/28 10:39:38;;;;;;;60.22;20.45;;;;;;;6.11;63.95;95701.38;4997869;28;20044;-77
2020/12/28 10:42:04;;;;;;;67.70;21.23;;;;;;;6.14;63.83;95711.56;5006407;28;20046;-77
2020/12/28 10:44:31;;;;;;;100.40;22.60;;;;;;;6.13;64.25;95712.50;4947400;28;20063;-77
2020/12/28 10:47:16;;;;;;;134.15;47.67;;;;;;;6.65;62.98;95711.41;4991455;28;20121;-77
2020/12/28 10:50:00;;;;;;;57.15;22.92;;;;;;;6.49;63.43;95720.03;4995017;28;20498;-77
2020/12/28 10:52:28;;;;;;;51.58;22.90;;;;;;;6.85;62.81;95717.16;4949435;28;20054;-77
2020/12/28 10:55:13;;;;;;;48.47;22.95;;;;;;;6.80;62.78;95716.59;4964781;28;20042;-77
2020/12/28 10:57:57;;;;;;;110.30;23.98;;;;;;;6.45;63.79;95718.53;4992099;28;20066;-77
2020/12/28 11:00:27;;;;;;;128.60;25.17;;;;;;;6.21;64.56;95727.63;5008382;28;20059;-77
2020/12/28 11:02:54;;;;;;;178.43;26.67;;;;;;;6.05;65.23;95725.00;4993337;28;20120;-77
2020/12/28 11:05:39;;;;;;;137.02;24.38;;;;;;;6.28;64.38;95733.31;5008670;28;20469;-76
2020/12/28 11:08:23;;;;;;;58.70;23.60;;;;;;;6.10;65.43;95725.59;5008791;28;20059;-77
2020/12/28 11:11:08;;;;;;;74.85;22.27;;;;;;;5.75;66.23;95728.34;5002423;28;20142;-77
2020/12/28 11:13:53;;;;;;;60.17;20.95;;;;;;;6.15;64.70;95730.53;5009635;28;20444;-77
2020/12/28 11:16:38;;;;;;;63.88;21.00;;;;;;;6.13;64.86;95732.38;5006120;28;20154;-78
2020/12/28 11:19:04;;;;;;;93.97;21.17;;;;;;;6.03;64.61;95729.44;5012559;28;20403;-77
2020/12/28 11:21:31;;;;;;;47.35;20.77;;;;;;;6.08;64.66;95735.22;4981124;28;20461;-79
2020/12/28 11:24:15;;;;;;;52.35;19.50;;;;;;;6.28;63.96;95738.50;5007229;28;20055;-76
2020/12/28 11:26:59;;;;;;;41.38;19.67;;;;;;;6.65;63.21;95733.00;4998096;28;20066;-76
2020/12/28 11:29:26;;;;;;;51.47;19.58;;;;;;;6.40;63.52;95737.84;5008525;28;20128;-76
2020/12/28 11:31:53;;;;;;;50.15;15.77;;;;;;;6.23;63.69;95738.75;4943600;28;20050;-75
2020/12/28 11:34:19;;;;;;;50.78;16.80;;;;;;;5.75;64.91;95742.13;4948535;28;20041;-77
2020/12/28 11:36:46;;;;;;;60.22;15.43;;;;;;;5.68;65.22;95738.16;4948159;28;20077;-76
2020/12/28 11:39:14;;;;;;;43.88;16.98;;;;;;;5.88;64.83;95752.72;5007924;28;20047;-76
2020/12/28 11:41:40;;;;;;;43.05;16.23;;;;;;;6.03;64.74;95741.56;4942563;28;20555;-76
2020/12/28 11:44:10;;;;;;;32.35;14.32;;;;;;;6.52;63.49;95742.38;5006525;28;20374;-77
2020/12/28 11:46:38;;;;;;;26.15;11.35;;;;;;;6.27;63.34;95745.44;4943060;28;20094;-75
2020/12/28 11:49:23;;;;;;;41.55;14.80;;;;;;;6.23;64.08;95740.50;4997760;28;20035;-76
2020/12/28 11:52:08;;;;;;;39.10;15.98;;;;;;;6.70;62.50;95749.13;5009541;28;20046;-77
2020/12/28 11:54:52;;;;;;;80.95;16.42;;;;;;;5.82;65.47;95745.22;4994550;28;20446;-76
2020/12/28 11:57:19;;;;;;;58.60;18.15;;;;;;;5.88;65.41;95748.38;4943280;28;20052;-77
2020/12/28 11:59:45;;;;;;;76.32;18.52;;;;;;;5.72;65.75;95743.13;5009038;28;20445;-77
2020/12/28 12:02:29;;;;;;;925.08;483.00;;;;;;;5.79;66.63;95754.00;5005261;28;20094;-76
2020/12/28 12:05:13;;;;;;;322.20;121.05;;;;;;;5.99;66.51;95750.41;4992025;28;20563;-77
2020/12/28 12:07:40;;;;;;;80.90;30.65;;;;;;;5.85;66.64;95758.84;5011418;28;20079;-76
2020/12/28 12:10:06;;;;;;;82.13;29.58;;;;;;;6.06;65.50;95765.53;4940371;28;20097;-75
2020/12/28 12:12:33;;;;;;;76.15;29.17;;;;;;;6.06;65.87;95762.13;5018848;28;20420;-76